Time;durP1;ratioP1;P1;durP2;ratioP2;P2;SDS_P1;SDS_P2;PMS_P1;PMS_P2;Temp;Humidity;BMP_temperature;BMP_pressure;BME280_temperature;BME280_humidity;BME280_pressure;Samples;Min_cycle;Max_cycle;Signal;HPM_P1;HPM_P2
2022/12/10 00:01:42;;;;;;;126.90;44.50;;;-3.40;99.90;;;;;;5065550;28;20060;-29
2022/12/10 00:04:09;;;;;;;138.57;42.20;;;-3.40;99.90;;;;;;5032509;28;20045;-29
2022/12/10 00:06:36;;;;;;;128.07;39.23;;;-3.40;99.90;;;;;;5033427;28;20041;-29
2022/12/10 00:09:05;;;;;;;121.77;41.27;;;-3.40;99.90;;;;;;5034269;28;20055;-29
2022/12/10 00:11:31;;;;;;;134.37;41.23;;;-3.50;99.90;;;;;;5033398;28;20411;-29
2022/12/10 00:13:58;;;;;;;108.60;39.13;;;-3.50;99.90;;;;;;5033404;28;20133;-29
2022/12/10 00:16:25;;;;;;;122.60;40.27;;;-3.60;99.90;;;;;;5033794;28;20061;-29
2022/12/10 00:18:52;;;;;;;114.63;39.90;;;-3.60;99.90;;;;;;5033349;28;20060;-29
2022/12/10 00:21:24;;;;;;;124.00;40.57;;;-3.70;99.90;;;;;;5033503;28;20111;-29
2022/12/10 00:23:51;;;;;;;119.57;40.63;;;-3.70;99.90;;;;;;5033040;28;20500;-29
2022/12/10 00:26:19;;;;;;;120.87;41.17;;;-3.70;99.90;;;;;;5033310;28;20128;-29
2022/12/10 00:28:45;;;;;;;118.50;40.50;;;-3.60;99.90;;;;;;5033235;28;20532;-29
2022/12/10 00:31:18;;;;;;;130.57;41.43;;;-3.60;99.90;;;;;;5032941;28;20423;-29
2022/12/10 00:33:45;;;;;;;123.93;41.20;;;-3.50;99.90;;;;;;5033782;28;20057;-29
2022/12/10 00:36:16;;;;;;;131.53;43.50;;;-3.50;99.90;;;;;;5033246;28;20132;-30
2022/12/10 00:38:43;;;;;;;130.70;42.40;;;-3.50;99.90;;;;;;5033497;28;20057;-29
2022/12/10 00:41:09;;;;;;;128.37;42.17;;;-3.50;99.90;;;;;;5037194;28;20388;-29
2022/12/10 00:43:35;;;;;;;123.83;41.07;;;-3.50;99.90;;;;;;5037407;28;20495;-29
2022/12/10 00:46:01;;;;;;;135.07;41.03;;;-3.60;99.90;;;;;;5036787;28;20057;-29
2022/12/10 00:48:27;;;;;;;138.60;42.10;;;-3.60;99.90;;;;;;5036781;28;20081;-29
2022/12/10 00:50:56;;;;;;;124.30;41.63;;;-3.60;99.90;;;;;;5052689;28;20144;-29
2022/12/10 00:53:23;;;;;;;133.73;42.83;;;-3.60;99.90;;;;;;5036706;28;20045;-29
2022/12/10 00:55:49;;;;;;;148.00;43.47;;;-3.60;99.90;;;;;;5036717;28;20198;-29
2022/12/10 00:58:15;;;;;;;138.60;43.50;;;-3.70;99.90;;;;;;5035399;28;20042;-29
2022/12/10 01:00:40;;;;;;;137.00;42.87;;;-3.70;99.90;;;;;;5035642;28;20057;-29
2022/12/10 01:03:06;;;;;;;135.53;43.63;;;-3.70;99.90;;;;;;5036802;28;20052;-29
2022/12/10 01:05:32;;;;;;;151.33;45.20;;;-3.00;99.90;;;;;;5037004;28;20124;-29
2022/12/10 01:07:57;;;;;;;144.43;44.20;;;-3.70;99.90;;;;;;5036696;28;20391;-29
2022/12/10 01:10:23;;;;;;;145.90;44.57;;;-3.80;99.90;;;;;;5036394;28;20118;-29
2022/12/10 01:12:48;;;;;;;136.23;46.03;;;-3.80;99.90;;;;;;5036351;28;20439;-29
2022/12/10 01:15:14;;;;;;;149.10;44.30;;;-3.70;99.90;;;;;;5036782;28;20056;-29
2022/12/10 01:17:40;;;;;;;146.03;45.87;;;-3.70;99.90;;;;;;5036493;28;20041;-29
2022/12/10 01:20:06;;;;;;;146.10;44.67;;;-3.70;99.90;;;;;;5018568;28;20072;-30
2022/12/10 01:22:32;;;;;;;146.73;44.63;;;-3.60;99.90;;;;;;5036052;28;20046;-29
2022/12/10 01:24:58;;;;;;;139.00;46.53;;;-3.70;99.90;;;;;;5034658;28;20198;-29
2022/12/10 01:27:23;;;;;;;143.27;44.27;;;-3.70;99.90;;;;;;5036347;28;20468;-29
2022/12/10 01:29:49;;;;;;;145.50;45.07;;;-3.70;99.90;;;;;;5036558;28;20049;-29
2022/12/10 01:32:15;;;;;;;139.33;43.23;;;-3.70;99.90;;;;;;5068273;28;20056;-29
2022/12/10 01:34:40;;;;;;;146.20;43.47;;;-3.70;99.90;;;;;;5035901;28;20132;-29
2022/12/10 01:37:06;;;;;;;137.93;44.03;;;-3.80;99.90;;;;;;5036597;28;20042;-29
2022/12/10 01:39:32;;;;;;;127.77;43.80;;;-3.80;99.90;;;;;;5036942;28;20049;-29
2022/12/10 01:41:59;;;;;;;134.77;43.37;;;-3.80;99.90;;;;;;5035792;28;20404;-29
2022/12/10 01:44:25;;;;;;;147.10;43.10;;;-3.80;99.90;;;;;;5036038;28;20132;-29
2022/12/10 01:46:53;;;;;;;143.10;45.13;;;-3.90;99.90;;;;;;5051084;28;20471;-28
2022/12/10 01:49:24;;;;;;;135.60;44.63;;;-3.90;99.90;;;;;;5034702;28;20055;-29
2022/12/10 01:51:55;;;;;;;139.93;43.33;;;-3.90;99.90;;;;;;5034441;28;20107;-29
2022/12/10 01:54:29;;;;;;;149.13;44.73;;;-4.00;99.90;;;;;;5035617;28;20049;-28
2022/12/10 01:57:09;;;;;;;140.80;42.23;;;-3.90;99.90;;;;;;5035467;28;20045;-29
2022/12/10 01:59:36;;;;;;;145.23;43.03;;;-4.00;99.90;;;;;;5035505;28;20045;-29
2022/12/10 02:02:24;;;;;;;134.87;44.27;;;-3.10;99.90;;;;;;5035420;28;20045;-28
2022/12/10 02:05:05;;;;;;;142.50;44.60;;;-4.10;99.90;;;;;;5035347;28;20103;-29
2022/12/10 02:07:53;;;;;;;136.83;42.13;;;-4.10;99.90;;;;;;5036462;28;20068;-29
2022/12/10 02:10:57;;;;;;;156.37;45.87;;;-4.00;99.90;;;;;;5035289;28;20042;-28
2022/12/10 02:13:23;;;;;;;144.50;43.87;;;-4.10;99.90;;;;;;5034250;28;20058;-30
2022/12/10 02:16:04;;;;;;;161.43;45.70;;;-3.50;99.90;;;;;;5034735;28;20061;-28
2022/12/10 02:18:46;;;;;;;146.13;46.37;;;-4.10;99.90;;;;;;5035363;28;20494;-29
2022/12/10 02:21:18;;;;;;;156.83;45.53;;;-4.10;99.90;;;;;;5035810;28;20089;-29
2022/12/10 02:23:49;;;;;;;145.17;44.53;;;-4.00;99.90;;;;;;5034880;28;20156;-29
2022/12/10 02:26:49;;;;;;;160.57;47.33;;;-4.00;99.90;;;;;;5035802;28;20053;-29
2022/12/10 02:29:26;;;;;;;157.20;45.93;;;-3.90;99.90;;;;;;5030510;28;20419;-29
2022/12/10 02:32:18;;;;;;;157.17;46.53;;;-3.90;99.90;;;;;;5033931;28;20057;-29
2022/12/10 02:34:49;;;;;;;158.90;45.57;;;-4.00;99.90;;;;;;5034821;28;20041;-29
2022/12/10 02:37:28;;;;;;;151.77;44.87;;;-4.00;99.90;;;;;;5035272;28;20394;-29
2022/12/10 02:39:57;;;;;;;159.43;46.67;;;-4.00;99.90;;;;;;5034777;28;20077;-29
2022/12/10 02:42:25;;;;;;;154.70;44.17;;;-4.10;99.90;;;;;;5034614;28;20098;-28
2022/12/10 02:44:53;;;;;;;155.50;45.73;;;-4.10;99.90;;;;;;5033646;28;20568;-30
2022/12/10 02:47:19;;;;;;;150.07;44.63;;;-4.20;99.90;;;;;;5033793;28;20049;-29
2022/12/10 02:49:49;;;;;;;157.27;47.13;;;-4.00;99.90;;;;;;5034533;28;20092;-29
2022/12/10 02:52:18;;;;;;;153.07;46.47;;;-4.00;99.90;;;;;;5035038;28;20076;-29
2022/12/10 02:54:46;;;;;;;144.20;45.30;;;-4.10;99.90;;;;;;5033965;28;20049;-28
2022/12/10 02:57:32;;;;;;;142.93;44.40;;;-4.20;99.90;;;;;;5034258;28;20124;-29
2022/12/10 03:00:01;;;;;;;149.17;43.93;;;-4.20;99.90;;;;;;5035185;28;20053;-29
2022/12/10 03:02:37;;;;;;;154.90;44.33;;;-4.20;99.90;;;;;;5066359;28;20060;-29
2022/12/10 03:05:23;;;;;;;145.47;41.73;;;-4.20;99.90;;;;;;5033612;28;20085;-28
2022/12/10 03:08:12;;;;;;;124.80;39.30;;;-4.30;99.90;;;;;;5034311;28;20045;-29
2022/12/10 03:10:48;;;;;;;139.27;44.57;;;-4.30;99.90;;;;;;5023017;28;20053;-28
2022/12/10 03:13:17;;;;;;;152.43;45.97;;;-4.30;99.90;;;;;;5034729;28;20068;-29
2022/12/10 03:15:44;;;;;;;150.23;43.90;;;-4.30;99.90;;;;;;5034595;28;20045;-29
2022/12/10 03:18:12;;;;;;;154.77;45.87;;;-4.10;99.90;;;;;;5032853;28;20059;-29
2022/12/10 03:20:41;;;;;;;163.60;46.40;;;-3.90;99.90;;;;;;5033775;28;20363;-29
2022/12/10 03:23:09;;;;;;;178.93;48.37;;;-3.80;99.90;;;;;;5032836;28;20095;-29
2022/12/10 03:25:37;;;;;;;170.93;50.10;;;-3.70;99.90;;;;;;5032312;28;20228;-29
2022/12/10 03:28:04;;;;;;;177.33;50.23;;;-3.50;99.90;;;;;;5033864;28;20526;-29
2022/12/10 03:30:33;;;;;;;162.10;48.53;;;-3.40;99.90;;;;;;5033865;28;20053;-29
2022/12/10 03:33:00;;;;;;;180.37;51.80;;;-3.20;99.90;;;;;;5033819;28;20128;-29
2022/12/10 03:35:27;;;;;;;192.27;50.13;;;-3.30;99.90;;;;;;5033104;28;20049;-30
2022/12/10 03:37:53;;;;;;;182.77;52.30;;;-3.10;99.90;;;;;;5034223;28;20087;-29
2022/12/10 03:40:24;;;;;;;187.17;50.63;;;-3.10;99.90;;;;;;5032473;28;20053;-29
2022/12/10 03:42:49;;;;;;;189.47;53.60;;;-2.90;99.90;;;;;;5034084;28;20076;-29
2022/12/10 03:45:15;;;;;;;181.03;52.67;;;-2.90;99.90;;;;;;5034229;28;20469;-29
2022/12/10 03:47:41;;;;;;;189.67;53.27;;;-2.80;99.90;;;;;;5034204;28;20081;-29
2022/12/10 03:50:08;;;;;;;199.43;56.23;;;-2.70;99.90;;;;;;5034182;28;20060;-29
2022/12/10 03:52:34;;;;;;;181.33;52.40;;;-2.60;99.90;;;;;;5033570;28;20479;-29
2022/12/10 03:54:59;;;;;;;202.20;56.53;;;-2.50;99.90;;;;;;5033595;28;20404;-29
2022/12/10 03:57:25;;;;;;;211.70;58.00;;;-2.40;99.90;;;;;;5033172;28;20048;-29
2022/12/10 03:59:51;;;;;;;202.17;55.20;;;-2.40;99.90;;;;;;5033829;28;20053;-30
2022/12/10 04:02:16;;;;;;;192.30;53.83;;;-2.30;99.90;;;;;;5065623;28;20533;-29
2022/12/10 04:04:42;;;;;;;184.47;52.30;;;-2.30;99.90;;;;;;5033492;28;20067;-29
2022/12/10 04:07:08;;;;;;;199.50;53.53;;;-2.20;99.90;;;;;;5032360;28;20103;-30
2022/12/10 04:09:34;;;;;;;198.00;54.10;;;-2.20;99.90;;;;;;5033492;28;20060;-29
2022/12/10 04:12:00;;;;;;;204.57;57.60;;;-2.20;99.90;;;;;;5032264;28;20045;-30
2022/12/10 04:17:13;;;;;;;203.87;53.87;;;-2.20;99.90;;;;;;5037153;28;20132;-29
2022/12/10 04:19:39;;;;;;;183.23;48.73;;;-2.20;99.90;;;;;;5037384;28;20369;-29
2022/12/10 04:27:36;;;;;;;266.67;61.57;;;-2.10;99.90;;;;;;5037532;28;20045;-29
2022/12/10 04:30:04;;;;;;;264.47;60.33;;;-2.00;99.90;;;;;;5037110;28;20053;-29
2022/12/10 04:32:30;;;;;;;232.20;57.70;;;-2.00;99.90;;;;;;5036643;28;20577;-29
2022/12/10 04:34:56;;;;;;;251.20;56.93;;;-2.00;99.90;;;;;;5037120;28;20050;-29
2022/12/10 04:37:23;;;;;;;254.37;56.83;;;-2.00;99.90;;;;;;5036653;28;20467;-29
2022/12/10 04:39:52;;;;;;;227.73;52.47;;;-2.00;99.90;;;;;;5037839;28;20050;-29
2022/12/10 04:42:18;;;;;;;309.27;63.50;;;-2.00;99.90;;;;;;5037497;28;20387;-29
2022/12/10 04:44:45;;;;;;;330.57;62.93;;;-2.00;99.90;;;;;;5035952;28;20057;-29
2022/12/10 04:47:11;;;;;;;345.90;65.97;;;-2.00;99.90;;;;;;5036214;28;20071;-29
2022/12/10 04:49:37;;;;;;;403.93;67.40;;;-2.00;99.90;;;;;;5036823;28;20056;-30
2022/12/10 04:52:04;;;;;;;331.60;55.70;;;-2.00;99.90;;;;;;5037566;28;20049;-29
2022/12/10 04:54:30;;;;;;;442.13;69.57;;;-2.00;99.90;;;;;;5037259;28;20198;-30
2022/12/10 04:56:56;;;;;;;448.07;69.97;;;-2.00;99.90;;;;;;5037421;28;20129;-30
2022/12/10 04:59:22;;;;;;;469.47;69.93;;;-1.90;99.90;;;;;;5036614;28;20545;-30
2022/12/10 05:01:48;;;;;;;417.40;58.23;;;-2.00;99.90;;;;;;5036624;28;20049;-29
2022/12/10 05:04:16;;;;;;;538.93;67.87;;;-2.00;99.90;;;;;;5037082;28;20053;-29
2022/12/10 05:06:42;;;;;;;451.67;62.47;;;-2.00;99.90;;;;;;5036149;28;20487;-30
2022/12/10 05:09:10;;;;;;;429.37;64.70;;;-2.00;99.90;;;;;;5036435;28;20051;-29
2022/12/10 05:11:36;;;;;;;333.33;45.97;;;-2.00;99.90;;;;;;5035806;28;20053;-29
2022/12/10 05:14:02;;;;;;;580.93;74.77;;;-2.00;99.90;;;;;;5036040;28;20438;-29
2022/12/10 05:16:30;;;;;;;529.63;66.80;;;-2.10;99.90;;;;;;5036281;28;20045;-29
2022/12/10 05:18:56;;;;;;;661.87;76.20;;;-2.00;99.90;;;;;;5036791;28;20045;-29
2022/12/10 05:21:23;;;;;;;467.60;59.60;;;-2.00;99.90;;;;;;5036168;28;20408;-29
2022/12/10 05:23:51;;;;;;;692.20;81.53;;;-2.30;99.90;;;;;;5035949;28;20049;-29
2022/12/10 05:26:20;;;;;;;433.93;51.83;;;-2.10;99.90;;;;;;5035120;28;20053;-29
2022/12/10 05:28:47;;;;;;;324.67;44.83;;;-2.00;99.90;;;;;;5035785;28;20033;-30
2022/12/10 05:31:18;;;;;;;440.10;57.30;;;-2.00;99.90;;;;;;5036030;28;20054;-29
2022/12/10 05:33:44;;;;;;;517.33;60.27;;;-2.00;99.90;;;;;;5036003;28;20056;-30
2022/12/10 05:36:12;;;;;;;568.80;71.77;;;-2.10;99.90;;;;;;5035996;28;20045;-29
2022/12/10 05:38:39;;;;;;;639.43;76.93;;;-2.00;99.90;;;;;;5035809;28;20053;-29
2022/12/10 05:41:16;;;;;;;454.10;59.33;;;-2.00;99.90;;;;;;5035858;28;20045;-29
2022/12/10 05:43:43;;;;;;;442.77;59.60;;;-2.00;99.90;;;;;;5036517;28;20056;-29
2022/12/10 05:46:17;;;;;;;526.20;63.67;;;-2.00;99.90;;;;;;5036611;28;20124;-30
2022/12/10 05:48:43;;;;;;;597.57;70.23;;;-1.90;99.90;;;;;;5035622;28;20127;-30
2022/12/10 05:51:14;;;;;;;602.60;74.63;;;-2.00;99.90;;;;;;5036222;28;20058;-29
2022/12/10 05:53:41;;;;;;;618.57;73.10;;;-2.00;99.90;;;;;;5036493;28;20050;-30
2022/12/10 05:56:12;;;;;;;569.63;66.10;;;-2.00;99.90;;;;;;5035557;28;20049;-29
2022/12/10 05:58:38;;;;;;;631.20;73.97;;;-2.00;99.90;;;;;;5034831;28;20052;-29
2022/12/10 06:01:10;;;;;;;538.20;63.93;;;-2.00;99.90;;;;;;5036018;28;20096;-29
2022/12/10 06:03:36;;;;;;;499.33;64.70;;;-1.90;99.90;;;;;;5035429;28;20092;-29
2022/12/10 06:06:01;;;;;;;474.83;61.13;;;-1.90;99.90;;;;;;5036219;28;20081;-30
2022/12/10 06:08:27;;;;;;;495.73;65.07;;;-2.00;99.90;;;;;;5035325;28;20463;-29
2022/12/10 06:10:53;;;;;;;482.90;59.90;;;-1.90;99.90;;;;;;5034118;28;20053;-30
2022/12/10 06:13:20;;;;;;;423.13;57.93;;;-1.90;99.90;;;;;;5035801;28;20049;-29
2022/12/10 06:15:45;;;;;;;355.80;52.97;;;-1.90;99.90;;;;;;5034840;28;20395;-29
2022/12/10 06:18:11;;;;;;;474.67;62.63;;;-2.00;99.90;;;;;;5035079;28;20046;-30
2022/12/10 06:20:38;;;;;;;354.60;50.90;;;-1.50;99.90;;;;;;5035019;28;20053;-29
2022/12/10 06:23:05;;;;;;;405.40;51.77;;;-1.90;99.90;;;;;;5067343;28;20496;-29
2022/12/10 06:25:31;;;;;;;455.17;58.03;;;-1.10;99.90;;;;;;5034449;28;20061;-29
2022/12/10 06:27:56;;;;;;;315.20;48.93;;;-1.90;99.90;;;;;;5034977;28;20175;-29
2022/12/10 06:30:22;;;;;;;290.53;42.87;;;-1.90;99.90;;;;;;5035498;28;20051;-29
2022/12/10 06:32:48;;;;;;;417.73;55.30;;;-1.80;99.90;;;;;;5033670;28;20080;-29
2022/12/10 06:35:13;;;;;;;307.60;46.53;;;-1.90;99.90;;;;;;5033851;28;20060;-29
2022/12/10 06:37:39;;;;;;;427.07;58.77;;;-1.90;99.90;;;;;;5034633;28;20175;-29
2022/12/10 06:40:05;;;;;;;314.33;48.10;;;-1.90;99.90;;;;;;5034709;28;20049;-29
2022/12/10 06:42:31;;;;;;;337.93;48.80;;;-1.90;99.90;;;;;;5033648;28;20053;-29
2022/12/10 06:44:57;;;;;;;362.40;46.90;;;-1.90;99.90;;;;;;5034698;28;20052;-29
2022/12/10 06:47:23;;;;;;;234.07;37.83;;;-1.90;99.90;;;;;;5034618;28;20053;-29
2022/12/10 06:49:48;;;;;;;290.10;46.77;;;-1.90;99.90;;;;;;5034571;28;20084;-29
2022/12/10 06:52:14;;;;;;;314.73;44.43;;;-1.40;99.90;;;;;;5034464;28;20084;-29
2022/12/10 06:54:40;;;;;;;286.93;41.47;;;-1.90;99.90;;;;;;5035298;28;20048;-30
2022/12/10 06:57:06;;;;;;;325.77;48.50;;;-1.90;99.90;;;;;;5034635;28;20041;-29
2022/12/10 06:59:32;;;;;;;266.10;40.70;;;-1.80;99.90;;;;;;5034426;28;20045;-29
2022/12/10 07:01:57;;;;;;;385.27;54.37;;;-1.90;99.90;;;;;;5034601;28;20045;-30
2022/12/10 07:04:23;;;;;;;207.37;35.50;;;-1.90;99.90;;;;;;5034324;28;20536;-29
2022/12/10 07:06:49;;;;;;;347.13;49.43;;;-1.90;99.90;;;;;;5034264;28;20381;-29
2022/12/10 07:09:15;;;;;;;169.07;33.63;;;-1.80;99.90;;;;;;5034202;28;20098;-30
2022/12/10 07:11:42;;;;;;;173.23;32.57;;;-1.90;99.90;;;;;;5034952;28;20183;-29
2022/12/10 07:14:11;;;;;;;299.60;47.43;;;-2.00;99.90;;;;;;5034065;28;20052;-29
2022/12/10 07:16:37;;;;;;;279.17;43.77;;;-1.90;99.90;;;;;;5034570;28;20049;-29
2022/12/10 07:19:03;;;;;;;477.73;61.13;;;-1.90;99.90;;;;;;5034077;28;20136;-29
2022/12/10 07:21:34;;;;;;;349.07;46.63;;;-1.90;99.90;;;;;;5034458;28;20131;-29
2022/12/10 07:24:22;;;;;;;516.00;64.73;;;-1.90;99.90;;;;;;5033853;28;20065;-29
2022/12/10 07:26:48;;;;;;;413.50;53.57;;;-1.90;99.90;;;;;;5033390;28;20511;-29
2022/12/10 07:29:20;;;;;;;377.73;51.80;;;-1.90;99.90;;;;;;5033922;28;20045;-30
2022/12/10 07:31:47;;;;;;;523.30;61.30;;;-1.90;99.90;;;;;;5033895;28;20051;-29
2022/12/10 07:34:14;;;;;;;477.73;58.13;;;-2.00;99.90;;;;;;5032628;28;20045;-29
2022/12/10 07:36:40;;;;;;;458.43;60.10;;;-1.90;99.90;;;;;;5033752;28;20088;-29
2022/12/10 07:39:08;;;;;;;387.43;54.37;;;-2.00;99.90;;;;;;5034311;28;20396;-28
2022/12/10 07:41:35;;;;;;;295.10;44.37;;;-2.00;99.90;;;;;;5033730;28;20068;-29
2022/12/10 07:44:02;;;;;;;366.67;49.37;;;-1.20;99.90;;;;;;5066060;28;20540;-29
2022/12/10 07:46:30;;;;;;;477.23;56.13;;;-1.60;99.90;;;;;;5034174;28;20050;-28
2022/12/10 07:48:56;;;;;;;187.80;31.73;;;-2.00;99.90;;;;;;5032190;28;20388;-29
2022/12/10 07:51:22;;;;;;;346.13;48.27;;;-2.00;99.90;;;;;;5034446;28;20041;-29
2022/12/10 07:53:51;;;;;;;411.57;57.93;;;-2.00;99.90;;;;;;5048914;28;20542;-29
2022/12/10 07:56:17;;;;;;;478.50;56.87;;;-1.90;99.90;;;;;;5033268;28;20511;-29
2022/12/10 07:58:44;;;;;;;298.70;46.37;;;-2.00;99.90;;;;;;5033475;28;20075;-29
2022/12/10 08:01:13;;;;;;;392.00;53.73;;;-2.00;99.90;;;;;;5033753;28;20480;-29
2022/12/10 08:03:40;;;;;;;332.53;48.80;;;-2.10;99.90;;;;;;5033468;28;20045;-29
2022/12/10 08:06:11;;;;;;;322.37;40.03;;;-2.00;99.90;;;;;;5033458;28;20041;-29
2022/12/10 08:08:37;;;;;;;388.20;50.87;;;-2.10;99.90;;;;;;5034060;28;20049;-29
2022/12/10 08:11:04;;;;;;;398.33;52.37;;;-2.10;99.90;;;;;;5033438;28;20049;-28
2022/12/10 08:13:31;;;;;;;366.87;52.23;;;-2.10;99.90;;;;;;5033331;28;20103;-28
2022/12/10 08:16:25;;;;;;;339.47;50.07;;;-1.70;99.90;;;;;;5033296;28;20091;-28
2022/12/10 08:18:51;;;;;;;383.60;49.87;;;-2.10;99.90;;;;;;5033296;28;20141;-29
2022/12/10 08:21:19;;;;;;;335.83;47.27;;;-2.00;99.90;;;;;;5033276;28;20051;-29
2022/12/10 08:23:46;;;;;;;558.03;63.83;;;-2.10;99.90;;;;;;5033290;28;20045;-29
2022/12/10 08:26:21;;;;;;;465.40;61.77;;;-2.10;99.90;;;;;;5033375;28;20054;-28
2022/12/10 08:28:48;;;;;;;428.37;56.37;;;-2.00;99.90;;;;;;5065965;28;20045;-29
2022/12/10 08:31:15;;;;;;;366.07;50.23;;;-2.00;99.90;;;;;;5033240;28;20045;-28
2022/12/10 08:33:41;;;;;;;334.90;49.17;;;-2.00;99.90;;;;;;5015583;28;20458;-28
2022/12/10 08:36:10;;;;;;;416.37;55.03;;;-2.00;99.90;;;;;;5033190;28;20045;-29
2022/12/10 08:38:35;;;;;;;445.20;54.73;;;-2.00;99.90;;;;;;5031826;28;20053;-28
2022/12/10 08:41:17;;;;;;;251.33;40.13;;;-2.00;99.90;;;;;;5032958;28;20045;-30
2022/12/10 08:43:43;;;;;;;407.07;50.43;;;-1.90;99.90;;;;;;5033486;28;20045;-28
2022/12/10 08:46:09;;;;;;;405.00;51.97;;;-1.90;99.90;;;;;;5033687;28;20072;-29
2022/12/10 08:48:36;;;;;;;204.17;35.20;;;-1.90;99.90;;;;;;5033260;28;20080;-29
2022/12/10 08:51:03;;;;;;;314.83;39.40;;;-1.90;99.90;;;;;;5033081;28;20088;-29
2022/12/10 08:53:29;;;;;;;342.47;46.47;;;-1.20;99.90;;;;;;5033118;28;20049;-28
2022/12/10 08:55:55;;;;;;;383.33;53.03;;;-1.90;99.90;;;;;;5033065;28;20088;-30
2022/12/10 08:58:21;;;;;;;195.97;38.00;;;-2.10;99.90;;;;;;5032998;28;20099;-29
2022/12/10 09:00:48;;;;;;;285.03;45.87;;;-1.90;99.90;;;;;;5015717;28;20448;-28
2022/12/10 09:03:14;;;;;;;260.50;44.00;;;-2.00;99.90;;;;;;5036569;28;20123;-29
2022/12/10 09:05:41;;;;;;;220.47;37.20;;;-1.80;99.90;;;;;;5036494;28;20048;-29
2022/12/10 09:08:06;;;;;;;357.93;47.47;;;-1.70;99.90;;;;;;5036468;28;20048;-29
2022/12/10 09:10:32;;;;;;;249.53;39.20;;;-1.60;99.90;;;;;;5036472;28;20046;-29
2022/12/10 09:12:58;;;;;;;212.73;33.40;;;-1.60;99.90;;;;;;5035191;28;20045;-29
2022/12/10 09:15:23;;;;;;;296.33;43.57;;;-1.60;99.90;;;;;;5036403;28;20045;-28
2022/12/10 09:17:49;;;;;;;398.93;52.17;;;-1.60;99.90;;;;;;5036269;28;20400;-29
2022/12/10 09:20:15;;;;;;;337.27;54.00;;;-1.60;99.90;;;;;;5036002;28;20060;-29
2022/12/10 09:22:41;;;;;;;383.30;105.70;;;-1.60;99.90;;;;;;5036015;28;20060;-29
2022/12/10 09:25:14;;;;;;;230.57;39.77;;;-1.50;99.90;;;;;;5034632;28;20097;-29
2022/12/10 09:27:39;;;;;;;217.18;36.42;;;-1.60;99.90;;;;;;5036183;28;20057;-30
2022/12/10 09:30:06;;;;;;;189.60;33.00;;;-1.70;99.90;;;;;;5036388;28;20044;-29
2022/12/10 09:32:31;;;;;;;263.30;39.20;;;-1.70;99.90;;;;;;5036036;28;20053;-28
2022/12/10 09:34:57;;;;;;;175.87;32.00;;;-1.60;99.90;;;;;;5036532;28;20499;-29
2022/12/10 09:37:23;;;;;;;201.17;31.00;;;-1.60;99.90;;;;;;5036191;28;20057;-29
2022/12/10 09:39:48;;;;;;;88.47;21.57;;;-1.60;99.90;;;;;;5035918;28;20050;-30
2022/12/10 09:42:44;;;;;;;195.97;34.70;;;-1.70;99.90;;;;;;5034642;28;20510;-29
2022/12/10 09:45:32;;;;;;;218.13;38.43;;;-1.60;99.90;;;;;;5069011;28;20446;-29
2022/12/10 09:48:19;;;;;;;151.30;27.90;;;-1.70;99.90;;;;;;5036061;28;20038;-29
2022/12/10 09:51:00;;;;;;;249.83;39.20;;;-1.60;99.90;;;;;;5035671;28;20049;-29
2022/12/10 09:53:28;;;;;;;187.17;36.10;;;-1.60;99.90;;;;;;5068822;28;20076;-29
2022/12/10 09:55:54;;;;;;;346.23;52.17;;;-1.60;99.90;;;;;;5035462;28;20435;-29
2022/12/10 09:58:23;;;;;;;341.97;73.90;;;-1.60;99.90;;;;;;5035693;28;20041;-29
2022/12/10 10:00:59;;;;;;;373.37;74.57;;;-1.50;99.90;;;;;;5035760;28;20067;-29
2022/12/10 10:03:25;;;;;;;184.77;36.17;;;-1.50;99.90;;;;;;5068194;28;20059;-29
2022/12/10 10:05:53;;;;;;;339.50;67.53;;;-1.50;99.90;;;;;;5035294;28;20045;-29
2022/12/10 10:08:22;;;;;;;369.40;63.60;;;-1.50;99.90;;;;;;5035855;28;20045;-29
2022/12/10 10:10:48;;;;;;;345.57;55.30;;;-1.40;99.90;;;;;;5035773;28;20133;-29
2022/12/10 10:13:41;;;;;;;256.00;42.13;;;-1.50;99.90;;;;;;5034613;28;20127;-29
2022/12/10 10:16:15;;;;;;;333.08;47.88;;;-1.40;99.90;;;;;;5035238;28;20049;-28
2022/12/10 10:18:46;;;;;;;298.37;46.37;;;-1.40;99.90;;;;;;5034952;28;20050;-28
2022/12/10 10:21:25;;;;;;;284.70;43.40;;;-1.40;99.90;;;;;;5017536;28;20483;-28
2022/12/10 10:23:51;;;;;;;247.33;38.57;;;-1.40;99.90;;;;;;5034710;28;20057;-28
2022/12/10 10:26:17;;;;;;;365.67;47.47;;;-1.30;99.90;;;;;;5034988;28;20049;-28
2022/12/10 10:28:43;;;;;;;304.80;42.00;;;-1.30;99.90;;;;;;5034036;28;20056;-28
2022/12/10 10:31:30;;;;;;;216.33;36.70;;;-1.30;99.90;;;;;;5034905;28;20081;-28
2022/12/10 10:33:58;;;;;;;250.50;41.27;;;-1.20;99.90;;;;;;5035390;28;20046;-28
2022/12/10 10:36:32;;;;;;;223.30;39.03;;;-1.20;99.90;;;;;;5033969;28;20053;-28
2022/12/10 10:39:24;;;;;;;259.00;40.40;;;-1.10;99.90;;;;;;5067567;28;20434;-28
2022/12/10 10:41:53;;;;;;;266.73;38.83;;;-1.20;99.90;;;;;;5035056;28;20081;-29
2022/12/10 10:44:22;;;;;;;247.60;38.10;;;-1.20;99.90;;;;;;5034619;28;20049;-28
2022/12/10 10:46:50;;;;;;;179.20;34.47;;;-1.10;99.90;;;;;;5035367;28;20112;-29
2022/12/10 10:49:22;;;;;;;276.87;43.23;;;-1.10;99.90;;;;;;5034533;28;20042;-28
2022/12/10 10:51:47;;;;;;;274.90;41.73;;;-1.00;99.90;;;;;;5034483;28;20042;-28
2022/12/10 10:54:36;;;;;;;243.13;37.97;;;-1.00;99.90;;;;;;5034473;28;20045;-28
2022/12/10 10:57:06;;;;;;;293.57;44.53;;;-1.00;99.90;;;;;;5034389;28;20080;-28
2022/12/10 10:59:36;;;;;;;252.77;40.83;;;-1.10;99.90;;;;;;5034418;28;20081;-29
2022/12/10 11:02:33;;;;;;;248.30;40.87;;;-1.10;99.90;;;;;;5034355;28;20068;-29
2022/12/10 11:05:25;;;;;;;280.43;55.70;;;-1.20;99.90;;;;;;5034916;28;20056;-29
2022/12/10 11:08:07;;;;;;;328.87;54.00;;;-1.10;99.90;;;;;;5034151;28;20484;-29
2022/12/10 11:10:33;;;;;;;196.50;37.47;;;-1.20;99.90;;;;;;5066978;28;20430;-29
2022/12/10 11:13:05;;;;;;;262.33;51.63;;;-1.20;99.90;;;;;;5034729;28;20049;-29
2022/12/10 11:15:41;;;;;;;202.63;35.53;;;-1.10;99.90;;;;;;5034966;28;20191;-29
2022/12/10 11:18:41;;;;;;;222.60;38.80;;;-1.10;99.90;;;;;;5034025;28;20046;-29
2022/12/10 11:21:13;;;;;;;278.17;45.47;;;-0.60;99.90;;;;;;5022233;28;20058;-29
2022/12/10 11:23:41;;;;;;;261.07;42.03;;;-1.00;99.90;;;;;;5033867;28;20054;-29
2022/12/10 11:26:18;;;;;;;255.93;41.57;;;-1.10;99.90;;;;;;5033645;28;20049;-29
2022/12/10 11:29:13;;;;;;;245.43;42.37;;;-1.10;99.90;;;;;;5033194;28;20061;-28
2022/12/10 11:31:51;;;;;;;187.60;35.27;;;-0.90;99.90;;;;;;5015033;28;20088;-29
2022/12/10 11:34:22;;;;;;;198.90;35.23;;;-1.00;99.90;;;;;;5033801;28;20056;-30
2022/12/10 11:37:00;;;;;;;263.27;44.23;;;-0.90;99.90;;;;;;5034483;28;20049;-29
2022/12/10 11:39:54;;;;;;;263.03;45.80;;;-1.00;99.90;;;;;;5034336;28;20052;-29
2022/12/10 11:42:51;;;;;;;293.00;45.43;;;-0.90;99.90;;;;;;5024402;28;20049;-29
2022/12/10 11:45:46;;;;;;;246.17;41.53;;;-1.00;99.90;;;;;;5033324;28;20091;-29
2022/12/10 11:48:30;;;;;;;271.20;44.63;;;-0.90;99.90;;;;;;5033692;28;20057;-29
2022/12/10 11:51:05;;;;;;;384.80;54.83;;;-0.90;99.90;;;;;;5033309;28;20455;-29
2022/12/10 11:53:34;;;;;;;322.53;49.40;;;-0.80;99.90;;;;;;5033741;28;20049;-29
2022/12/10 11:56:26;;;;;;;347.23;49.97;;;-0.80;99.90;;;;;;5033500;28;20046;-29
2022/12/10 11:59:08;;;;;;;168.80;34.50;;;-0.70;99.90;;;;;;5033546;28;20045;-29
2022/12/10 12:02:05;;;;;;;308.40;49.17;;;-0.70;99.90;;;;;;5033417;28;20049;-29
2022/12/10 12:04:50;;;;;;;358.13;57.40;;;-0.70;99.90;;;;;;5034102;28;20050;-30
2022/12/10 12:07:38;;;;;;;309.47;54.50;;;-0.90;99.90;;;;;;5033555;28;20042;-29
2022/12/10 12:10:57;;;;;;;318.97;55.93;;;-0.80;99.90;;;;;;5033004;28;20050;-30
2022/12/10 12:13:29;;;;;;;244.33;47.23;;;-0.80;99.90;;;;;;5011668;28;20065;-29
2022/12/10 12:16:20;;;;;;;292.57;49.67;;;-1.20;99.90;;;;;;5032752;28;20140;-29
2022/12/10 12:19:04;;;;;;;226.57;36.73;;;-0.80;99.90;;;;;;5031350;28;20065;-30
2022/12/10 12:21:30;;;;;;;221.67;36.20;;;-0.80;99.90;;;;;;5033773;28;20045;-29
2022/12/10 12:24:02;;;;;;;129.67;24.00;;;-0.60;99.90;;;;;;5033969;28;20487;-29
2022/12/10 12:26:36;;;;;;;181.53;30.57;;;-0.90;99.90;;;;;;5031672;28;20057;-29
2022/12/10 12:29:13;;;;;;;280.37;41.30;;;-0.80;99.90;;;;;;5033013;28;20350;-29
2022/12/10 12:31:43;;;;;;;239.07;35.57;;;-0.70;99.90;;;;;;5034153;28;20353;-29
2022/12/10 12:34:24;;;;;;;150.73;27.43;;;-0.80;99.90;;;;;;5034100;28;20053;-29
2022/12/10 12:36:50;;;;;;;368.77;47.30;;;-0.90;99.90;;;;;;5037065;28;20454;-31
2022/12/10 12:39:38;;;;;;;245.63;41.23;;;-0.80;99.90;;;;;;5036925;28;20491;-29
2022/12/10 12:42:13;;;;;;;288.07;43.27;;;-0.70;99.90;;;;;;5036705;28;20048;-30
2022/12/10 12:45:01;;;;;;;319.43;44.07;;;-0.70;99.90;;;;;;5036833;28;20056;-30